createdAt,value
2022-11-02T00:00:54.315Z,13.35
2022-11-02T00:03:21.481Z,13.30
2022-11-02T00:05:48.490Z,13.27
2022-11-02T00:08:15.514Z,13.22
2022-11-02T00:10:42.548Z,13.15
2022-11-02T00:13:09.588Z,13.10
2022-11-02T00:15:37.444Z,13.07
2022-11-02T00:18:09.901Z,13.01
2022-11-02T00:20:39.618Z,12.97
2022-11-02T00:23:07.978Z,12.99
2022-11-02T00:25:37.822Z,13.04
2022-11-02T00:28:05.065Z,13.04
2022-11-02T00:30:32.160Z,13.01
2022-11-02T00:32:59.194Z,13.00
2022-11-02T00:35:26.551Z,13.00
2022-11-02T00:37:53.594Z,12.99
2022-11-02T00:40:20.940Z,12.95
2022-11-02T00:42:47.915Z,12.87
2022-11-02T00:45:14.909Z,12.82
2022-11-02T00:47:42.233Z,12.79
2022-11-02T00:50:09.971Z,12.75
2022-11-02T00:52:42.583Z,12.76
2022-11-02T00:55:11.556Z,12.73
2022-11-02T00:57:41.549Z,12.66
2022-11-02T01:00:11.073Z,12.68
2022-11-02T01:02:38.668Z,12.53
2022-11-02T01:05:06.908Z,12.45
2022-11-02T01:07:33.973Z,12.42
2022-11-02T01:10:00.869Z,12.35
2022-11-02T01:12:28.019Z,12.24
2022-11-02T01:14:55.026Z,12.23
2022-11-02T01:17:22.053Z,12.13
2022-11-02T01:19:50.930Z,12.09
2022-11-02T01:22:18.061Z,12.10
2022-11-02T01:24:45.106Z,12.12
2022-11-02T01:27:12.105Z,12.17
2022-11-02T01:29:39.069Z,12.21
2022-11-02T01:32:06.269Z,12.13
2022-11-02T01:34:33.303Z,12.05
2022-11-02T01:37:00.318Z,12.03
2022-11-02T01:39:27.411Z,12.04
2022-11-02T01:41:55.528Z,12.03
2022-11-02T01:44:34.412Z,12.07
2022-11-02T01:47:13.375Z,12.14
2022-11-02T01:49:43.367Z,12.19
2022-11-02T01:52:26.051Z,12.21
2022-11-02T01:54:59.330Z,12.22
2022-11-02T01:57:28.643Z,12.26
2022-11-02T02:00:07.168Z,12.28
2022-11-02T02:02:47.700Z,12.32
2022-11-02T02:05:17.867Z,12.29
2022-11-02T02:07:46.265Z,12.25
2022-11-02T02:10:13.829Z,12.23
2022-11-02T02:12:42.709Z,12.22
2022-11-02T02:15:11.500Z,12.14
2022-11-02T02:18:02.155Z,12.08
2022-11-02T02:20:51.828Z,11.96
2022-11-02T02:23:44.485Z,11.82
2022-11-02T02:26:50.129Z,11.76
2022-11-02T02:29:59.457Z,11.71
2022-11-02T02:33:05.171Z,11.68
2022-11-02T02:35:59.077Z,11.66
2022-11-02T02:38:34.828Z,11.63
2022-11-02T02:41:13.707Z,11.61
2022-11-02T02:43:57.533Z,11.51
2022-11-02T02:46:34.560Z,11.43
2022-11-02T02:49:05.125Z,11.35
2022-11-02T02:51:34.676Z,11.34
2022-11-02T02:54:10.612Z,11.36
2022-11-02T02:56:44.326Z,11.37
2022-11-02T02:59:32.157Z,11.40
2022-11-02T03:02:00.773Z,11.41
2022-11-02T03:04:27.817Z,11.40
2022-11-02T03:06:58.787Z,11.37
2022-11-02T03:10:06.894Z,11.41
2022-11-02T03:12:55.928Z,11.37
2022-11-02T03:15:54.621Z,11.12
2022-11-02T03:18:53.367Z,11.00
2022-11-02T03:21:45.777Z,10.94
2022-11-02T03:24:37.180Z,10.92
2022-11-02T03:27:18.876Z,10.89
2022-11-02T03:30:08.272Z,10.92
2022-11-02T03:32:50.872Z,10.92
2022-11-02T03:35:53.676Z,10.87
2022-11-02T03:38:29.415Z,10.78
2022-11-02T03:40:57.749Z,10.75
2022-11-02T03:43:26.022Z,10.77
2022-11-02T03:45:57.581Z,10.83
2022-11-02T03:48:30.712Z,10.89
2022-11-02T03:51:04.713Z,10.96
2022-11-02T03:53:49.990Z,10.99
2022-11-02T03:56:38.239Z,11.01
2022-11-02T03:59:05.696Z,11.01
2022-11-02T04:01:42.362Z,10.98
2022-11-02T04:04:09.747Z,10.90
2022-11-02T04:06:37.251Z,10.79
2022-11-02T04:09:05.845Z,10.75
2022-11-02T04:11:51.779Z,10.71
2022-11-02T04:14:38.177Z,10.69
2022-11-02T04:19:58.893Z,10.61
2022-11-02T04:22:45.390Z,10.62
2022-11-02T04:25:20.717Z,10.60
2022-11-02T04:28:09.260Z,10.60
2022-11-02T04:31:00.203Z,10.54
2022-11-02T04:33:34.710Z,10.54
2022-11-02T04:36:32.358Z,10.52
2022-11-02T04:38:59.856Z,10.54
2022-11-02T04:41:44.023Z,10.56
2022-11-02T04:44:19.625Z,10.58
2022-11-02T04:46:54.317Z,10.63
2022-11-02T04:49:25.242Z,10.65
2022-11-02T04:51:53.907Z,10.66
2022-11-02T04:54:24.710Z,10.63
2022-11-02T04:56:56.322Z,10.61
2022-11-02T04:59:25.265Z,10.65
2022-11-02T05:01:53.230Z,10.70
2022-11-02T05:04:20.427Z,10.75
2022-11-02T05:06:49.027Z,10.75
2022-11-02T05:09:17.699Z,10.74
2022-11-02T05:11:47.446Z,10.76
2022-11-02T05:14:14.569Z,10.80
2022-11-02T05:16:42.246Z,10.83
2022-11-02T05:19:11.163Z,10.88
2022-11-02T05:21:39.859Z,10.95
2022-11-02T05:24:07.842Z,11.02
2022-11-02T05:26:35.615Z,11.09
2022-11-02T05:29:02.865Z,11.07
2022-11-02T05:31:30.205Z,11.08
2022-11-02T05:33:58.412Z,11.10
2022-11-02T05:36:25.672Z,11.15
2022-11-02T05:38:54.581Z,11.17
2022-11-02T05:41:22.857Z,11.20
2022-11-02T05:43:51.828Z,11.26
2022-11-02T05:46:20.966Z,11.32
2022-11-02T05:48:47.915Z,11.39
2022-11-02T05:51:14.833Z,11.46
2022-11-02T05:53:41.972Z,11.51
2022-11-02T05:56:10.741Z,11.55
2022-11-02T05:58:37.859Z,11.58
2022-11-02T06:01:07.421Z,11.66
2022-11-02T06:03:35.006Z,11.70
2022-11-02T06:06:07.662Z,11.77
2022-11-02T06:08:36.328Z,11.79
2022-11-02T06:11:11.260Z,11.80
2022-11-02T06:13:39.305Z,11.78
2022-11-02T06:16:09.915Z,11.81
2022-11-02T06:18:40.390Z,11.82
2022-11-02T06:21:07.766Z,11.87
2022-11-02T06:23:35.456Z,11.94
2022-11-02T06:26:03.066Z,12.02
2022-11-02T06:28:31.223Z,12.09
2022-11-02T06:30:58.845Z,12.11
2022-11-02T06:33:26.575Z,12.18
2022-11-02T06:35:54.727Z,12.31
2022-11-02T06:38:22.313Z,12.36
2022-11-02T06:41:02.302Z,12.39
2022-11-02T06:43:29.547Z,12.44
2022-11-02T06:45:58.024Z,12.50
2022-11-02T06:48:32.966Z,12.53
2022-11-02T06:51:02.635Z,12.69
2022-11-02T06:53:29.768Z,12.77
2022-11-02T06:55:58.034Z,12.83
2022-11-02T06:58:25.755Z,12.82
2022-11-02T07:01:01.072Z,12.84
2022-11-02T07:03:29.306Z,12.83
2022-11-02T07:05:56.588Z,12.78
2022-11-02T07:08:23.881Z,12.77
2022-11-02T07:10:51.202Z,12.76
2022-11-02T07:13:18.418Z,12.77
2022-11-02T07:15:45.611Z,12.82
2022-11-02T07:18:13.607Z,12.84
2022-11-02T07:20:41.150Z,12.90
2022-11-02T07:23:09.214Z,13.02
2022-11-02T07:25:36.864Z,13.03
2022-11-02T07:28:04.209Z,13.10
2022-11-02T07:30:34.168Z,13.22
2022-11-02T07:33:01.581Z,13.27
2022-11-02T07:35:29.006Z,13.31
2022-11-02T07:37:58.756Z,13.46
2022-11-02T07:40:27.132Z,13.60
2022-11-02T07:42:54.240Z,13.71
2022-11-02T07:45:29.773Z,13.80
2022-11-02T07:47:56.817Z,13.89
2022-11-02T07:50:26.154Z,13.92
2022-11-02T07:52:55.655Z,14.03
2022-11-02T07:55:25.123Z,14.10
2022-11-02T07:58:03.564Z,14.22
2022-11-02T08:00:33.214Z,14.40
2022-11-02T08:03:02.222Z,14.54
2022-11-02T08:05:30.704Z,14.69
2022-11-02T08:08:03.833Z,14.85
2022-11-02T08:10:39.050Z,14.98
2022-11-02T08:13:09.261Z,15.12
2022-11-02T08:15:37.355Z,15.27
2022-11-02T08:18:19.539Z,15.39
2022-11-02T08:20:47.999Z,15.53
2022-11-02T08:23:17.922Z,15.66
2022-11-02T08:25:46.796Z,15.77
2022-11-02T08:28:19.651Z,15.92
2022-11-02T08:30:46.822Z,16.05
2022-11-02T08:33:16.032Z,16.16
2022-11-02T08:35:44.810Z,16.27
2022-11-02T08:38:17.390Z,16.42
2022-11-02T08:40:47.884Z,16.56
2022-11-02T08:43:15.950Z,16.67
2022-11-02T08:48:32.643Z,16.86
2022-11-02T08:50:59.663Z,16.97
2022-11-02T08:53:27.165Z,17.10
2022-11-02T08:55:58.654Z,17.25
2022-11-02T08:58:25.690Z,17.40
2022-11-02T09:00:53.796Z,17.59
2022-11-02T09:03:26.111Z,17.64
2022-11-02T09:06:00.524Z,17.80
2022-11-02T09:08:28.992Z,17.92
2022-11-02T09:11:03.063Z,18.00
2022-11-02T09:13:30.594Z,18.10
2022-11-02T09:15:59.336Z,18.19
2022-11-02T09:18:26.841Z,18.28
2022-11-02T09:20:54.039Z,18.39
2022-11-02T09:23:21.927Z,18.55
2022-11-02T09:25:50.135Z,18.70
2022-11-02T09:28:17.702Z,18.88
2022-11-02T09:30:45.436Z,19.00
2022-11-02T09:33:13.879Z,19.10
2022-11-02T09:35:44.980Z,19.26
2022-11-02T09:38:12.391Z,19.35
2022-11-02T09:40:43.917Z,19.54
2022-11-02T09:43:37.617Z,19.70
2022-11-02T09:46:12.612Z,19.89
2022-11-02T09:48:48.691Z,20.13
2022-11-02T09:51:20.984Z,20.29
2022-11-02T09:54:14.663Z,20.48
2022-11-02T09:56:45.337Z,20.63
2022-11-02T09:59:24.733Z,20.81
2022-11-02T10:02:20.223Z,21.02
2022-11-02T10:05:36.916Z,21.29
2022-11-02T10:08:18.661Z,21.53
2022-11-02T10:11:13.185Z,21.76
2022-11-02T10:13:58.831Z,21.96
2022-11-02T10:16:38.419Z,22.10
2022-11-02T10:19:19.981Z,22.26
2022-11-02T10:21:50.176Z,22.39
2022-11-02T10:24:42.845Z,22.60
2022-11-02T10:27:33.445Z,22.81
2022-11-02T10:30:12.325Z,23.11
2022-11-02T10:32:41.009Z,23.38
2022-11-02T10:39:13.398Z,24.05
2022-11-02T10:42:19.001Z,24.13
2022-11-02T10:45:08.719Z,24.26
2022-11-02T10:47:54.166Z,24.24
2022-11-02T10:50:59.638Z,24.55
2022-11-02T10:53:40.598Z,24.68
2022-11-02T10:56:29.325Z,25.20
2022-11-02T10:59:20.582Z,25.29
2022-11-02T11:02:14.053Z,25.43
2022-11-02T11:04:42.415Z,25.34
2022-11-02T11:07:26.658Z,25.47
2022-11-02T11:09:56.512Z,25.50
2022-11-02T11:12:38.233Z,25.56
2022-11-02T11:20:44.978Z,25.61
2022-11-02T11:23:23.900Z,25.77
2022-11-02T11:26:17.587Z,25.83
2022-11-02T11:28:56.430Z,26.00
2022-11-02T11:31:24.657Z,25.95
2022-11-02T11:33:57.627Z,26.06
2022-11-02T11:36:31.342Z,26.25
2022-11-02T11:39:21.790Z,26.46
2022-11-02T11:41:49.060Z,26.47
2022-11-02T11:44:16.642Z,26.49
2022-11-02T11:46:50.854Z,26.44
2022-11-02T11:49:35.969Z,26.84
2022-11-02T11:52:20.701Z,27.12
2022-11-02T11:54:57.034Z,27.14
2022-11-02T11:57:28.494Z,27.07
2022-11-02T11:59:59.247Z,27.08
2022-11-02T12:02:40.861Z,27.13
2022-11-02T12:05:19.031Z,27.43
2022-11-02T12:08:16.264Z,27.80
2022-11-02T12:11:18.561Z,27.94
2022-11-02T12:14:44.694Z,28.01
2022-11-02T12:17:54.620Z,28.04
2022-11-02T12:21:00.504Z,28.32
2022-11-02T12:24:05.156Z,28.37
2022-11-02T12:26:53.512Z,28.58
2022-11-02T12:30:19.455Z,28.55
2022-11-02T12:33:37.540Z,28.38
2022-11-02T12:36:36.938Z,28.30
2022-11-02T12:39:51.334Z,28.03
2022-11-02T12:42:30.876Z,28.17
2022-11-02T12:45:16.999Z,28.04
2022-11-02T12:47:59.356Z,28.31
2022-11-02T12:50:54.506Z,28.43
2022-11-02T12:53:49.587Z,28.61
2022-11-02T12:56:42.208Z,28.76
2022-11-02T12:59:19.808Z,28.68
2022-11-02T13:01:53.250Z,28.77
2022-11-02T13:04:50.265Z,28.87
2022-11-02T13:07:26.331Z,29.08
2022-11-02T13:10:15.951Z,29.13
2022-11-02T13:12:44.870Z,29.14
2022-11-02T13:15:18.758Z,29.29
2022-11-02T13:18:18.746Z,29.02
2022-11-02T13:20:52.093Z,28.98
2022-11-02T13:23:36.063Z,29.11
2022-11-02T13:26:13.902Z,29.18
2022-11-02T13:28:48.894Z,29.29
2022-11-02T13:31:23.456Z,29.38
2022-11-02T13:33:54.430Z,29.47
2022-11-02T13:36:21.837Z,29.56
2022-11-02T13:39:12.683Z,29.66
2022-11-02T13:42:19.534Z,29.33
2022-11-02T13:45:18.849Z,29.32
2022-11-02T13:51:03.456Z,29.02
2022-11-02T13:53:36.959Z,28.83
2022-11-02T13:56:14.887Z,28.90
2022-11-02T13:58:48.821Z,29.23
2022-11-02T14:01:19.389Z,29.94
2022-11-02T14:03:58.827Z,30.82
2022-11-02T14:06:31.546Z,31.60
2022-11-02T14:09:02.120Z,32.40
2022-11-02T14:11:48.022Z,32.56
2022-11-02T14:14:25.506Z,32.99
2022-11-02T14:17:14.338Z,33.07
2022-11-02T14:19:53.951Z,33.23
2022-11-02T14:22:21.792Z,33.81
2022-11-02T14:24:54.268Z,34.20
2022-11-02T14:27:30.831Z,34.11
2022-11-02T14:29:59.265Z,34.23
2022-11-02T14:32:41.905Z,33.83
2022-11-02T14:35:36.276Z,33.52
2022-11-02T14:38:36.651Z,33.62
2022-11-02T14:41:49.052Z,33.63
2022-11-02T14:44:59.369Z,33.42
2022-11-02T14:47:33.557Z,32.89
2022-11-02T14:50:14.622Z,32.45
2022-11-02T14:52:54.073Z,31.89
2022-11-02T14:55:32.715Z,30.95
2022-11-02T14:58:18.762Z,29.93
2022-11-02T15:01:05.460Z,29.14
2022-11-02T15:03:39.643Z,28.58
2022-11-02T15:06:32.761Z,27.50
2022-11-02T15:09:04.287Z,26.85
2022-11-02T15:11:57.089Z,26.13
2022-11-02T15:15:06.502Z,25.39
2022-11-02T15:18:11.704Z,24.88
2022-11-02T15:20:42.398Z,24.53
2022-11-02T15:23:35.359Z,24.11
2022-11-02T15:26:06.288Z,24.00
2022-11-02T15:28:35.126Z,23.62
2022-11-02T15:31:15.253Z,23.29
2022-11-02T15:33:59.061Z,22.78
2022-11-02T15:36:45.297Z,22.51
2022-11-02T15:39:12.995Z,22.33
2022-11-02T15:41:45.399Z,22.06
2022-11-02T15:44:32.262Z,21.85
2022-11-02T15:47:47.679Z,21.50
2022-11-02T15:50:58.115Z,21.12
2022-11-02T15:53:39.357Z,20.74
2022-11-02T15:56:51.095Z,20.61
2022-11-02T15:59:46.261Z,20.39
2022-11-02T16:02:41.871Z,20.40
2022-11-02T16:05:23.759Z,20.28
2022-11-02T16:10:40.007Z,19.68
2022-11-02T16:13:20.117Z,19.60
2022-11-02T16:15:49.175Z,19.51
2022-11-02T16:18:30.644Z,19.43
2022-11-02T16:21:02.449Z,19.42
2022-11-02T16:23:32.777Z,19.44
2022-11-02T16:26:01.644Z,19.49
2022-11-02T16:28:33.564Z,19.52
2022-11-02T16:31:33.183Z,19.33
2022-11-02T16:34:04.390Z,19.40
2022-11-02T16:36:40.561Z,19.13
2022-11-02T16:39:21.147Z,18.97
2022-11-02T16:42:00.440Z,18.90
2022-11-02T16:44:30.194Z,18.79
2022-11-02T16:47:28.096Z,18.78
2022-11-02T16:49:59.598Z,18.67
2022-11-02T16:52:36.226Z,18.73
2022-11-02T16:55:40.411Z,18.62
2022-11-02T16:58:13.214Z,18.61
2022-11-02T17:00:40.260Z,18.67
2022-11-02T17:03:09.838Z,18.55
2022-11-02T17:05:42.610Z,18.49
2022-11-02T17:08:34.781Z,18.61
2022-11-02T17:11:04.804Z,18.50
2022-11-02T17:13:35.787Z,18.48
2022-11-02T17:16:11.442Z,18.57
2022-11-02T17:18:39.130Z,18.64
2022-11-02T17:21:25.898Z,18.48
2022-11-02T17:23:54.069Z,18.51
2022-11-02T17:26:36.072Z,18.51
2022-11-02T17:29:30.047Z,18.44
2022-11-02T17:32:00.680Z,18.43
2022-11-02T17:34:28.285Z,18.39
2022-11-02T17:36:55.538Z,18.30
2022-11-02T17:39:22.538Z,18.33
2022-11-02T17:42:17.542Z,18.13
2022-11-02T17:44:48.024Z,18.13
2022-11-02T17:47:18.217Z,18.30
2022-11-02T17:49:45.165Z,18.13
2022-11-02T17:52:14.529Z,18.19
2022-11-02T17:54:41.466Z,18.12
2022-11-02T17:57:14.010Z,17.96
2022-11-02T17:59:41.084Z,17.91
2022-11-02T18:02:15.856Z,18.04
2022-11-02T18:07:12.411Z,17.90
2022-11-02T18:09:39.511Z,17.76
2022-11-02T18:12:06.498Z,17.79
2022-11-02T18:14:33.583Z,17.71
2022-11-02T18:17:00.572Z,17.91
2022-11-02T18:19:28.378Z,17.96
2022-11-02T18:21:55.416Z,17.90
2022-11-02T18:24:22.365Z,17.79
2022-11-02T18:26:49.348Z,17.75
2022-11-02T18:29:16.413Z,17.96
2022-11-02T18:31:43.466Z,17.73
2022-11-02T18:34:10.760Z,17.88
2022-11-02T18:36:39.644Z,17.87
2022-11-02T18:39:07.169Z,17.76
2022-11-02T18:41:35.785Z,17.74
2022-11-02T18:44:10.257Z,17.92
2022-11-02T18:46:40.895Z,17.97
2022-11-02T18:49:07.871Z,18.00
2022-11-02T18:51:35.085Z,17.85
2022-11-02T18:54:04.324Z,17.75
2022-11-02T18:56:31.606Z,17.77
2022-11-02T18:58:58.794Z,17.74
2022-11-02T19:01:26.694Z,17.75
2022-11-02T19:04:00.679Z,17.75
2022-11-02T19:06:48.418Z,17.78
2022-11-02T19:09:23.583Z,17.90
2022-11-02T19:11:56.986Z,17.78
2022-11-02T19:14:24.692Z,17.88
2022-11-02T19:16:51.609Z,17.88
2022-11-02T19:19:18.589Z,18.00
2022-11-02T19:21:45.661Z,17.84
2022-11-02T19:24:12.719Z,17.77
2022-11-02T19:26:39.713Z,17.62
2022-11-02T19:29:07.165Z,17.52
2022-11-02T19:31:35.388Z,17.55
2022-11-02T19:34:02.784Z,17.51
2022-11-02T19:36:30.060Z,17.63
2022-11-02T19:38:58.465Z,17.60
2022-11-02T19:41:25.874Z,17.48
2022-11-02T19:43:53.296Z,17.39
2022-11-02T19:46:22.393Z,17.45
2022-11-02T19:48:49.926Z,17.36
2022-11-02T19:51:22.326Z,17.77
2022-11-02T19:53:54.790Z,17.96
2022-11-02T19:56:23.045Z,17.88
2022-11-02T19:58:51.918Z,17.83
2022-11-02T20:01:40.345Z,17.96
2022-11-02T20:04:07.574Z,17.89
2022-11-02T20:06:40.622Z,17.93
2022-11-02T20:09:14.786Z,17.95
2022-11-02T20:11:44.770Z,17.99
2022-11-02T20:14:13.370Z,17.66
2022-11-02T20:16:40.930Z,17.54
2022-11-02T20:19:09.292Z,17.55
2022-11-02T20:21:42.683Z,17.63
2022-11-02T20:24:11.635Z,17.59
2022-11-02T20:26:41.522Z,17.54
2022-11-02T20:29:12.240Z,17.52
2022-11-02T20:31:42.470Z,17.51
2022-11-02T20:34:09.496Z,17.54
2022-11-02T20:36:36.546Z,17.57
2022-11-02T20:39:05.130Z,17.62
2022-11-02T20:41:32.621Z,17.59
2022-11-02T20:43:59.929Z,17.60
2022-11-02T20:46:39.001Z,17.58
2022-11-02T20:49:20.866Z,17.57
2022-11-02T20:51:53.088Z,17.59
2022-11-02T20:54:21.651Z,17.59
2022-11-02T20:56:49.941Z,17.60
2022-11-02T20:59:17.816Z,17.59
2022-11-02T21:01:45.326Z,17.59
2022-11-02T21:04:18.546Z,17.59
2022-11-02T21:06:47.442Z,17.62
2022-11-02T21:09:14.416Z,17.63
2022-11-02T21:12:00.162Z,17.64
2022-11-02T21:14:27.288Z,17.58
2022-11-02T21:16:54.287Z,17.61
2022-11-02T21:19:21.338Z,17.61
2022-11-02T21:21:48.337Z,17.60
2022-11-02T21:24:15.361Z,17.61
2022-11-02T21:26:42.459Z,17.64
2022-11-02T21:29:09.637Z,17.67
2022-11-02T21:31:36.988Z,17.69
2022-11-02T21:34:04.008Z,17.68
2022-11-02T21:36:31.046Z,17.79
2022-11-02T21:38:58.988Z,17.79
2022-11-02T21:41:26.643Z,17.78
2022-11-02T21:43:55.659Z,17.80
2022-11-02T21:46:25.709Z,17.79
2022-11-02T21:48:53.107Z,17.79
2022-11-02T21:51:21.988Z,17.80
2022-11-02T21:53:50.278Z,17.80
2022-11-02T21:56:20.233Z,17.78
2022-11-02T21:58:47.905Z,17.76
2022-11-02T22:01:36.901Z,17.76
2022-11-02T22:04:05.179Z,17.73
2022-11-02T22:06:32.535Z,17.78
2022-11-02T22:09:02.827Z,17.80
2022-11-02T22:11:29.808Z,17.72
2022-11-02T22:13:59.112Z,17.64
2022-11-02T22:16:32.131Z,17.59
2022-11-02T22:19:04.688Z,17.57
2022-11-02T22:21:34.012Z,17.66
2022-11-02T22:24:01.554Z,17.68
2022-11-02T22:26:30.447Z,17.61
2022-11-02T22:28:58.234Z,17.68
2022-11-02T22:31:28.163Z,17.62
2022-11-02T22:33:57.957Z,17.60
2022-11-02T22:36:27.955Z,17.78
2022-11-02T22:38:56.780Z,17.85
2022-11-02T22:41:32.406Z,17.77
2022-11-02T22:44:05.937Z,17.58
2022-11-02T22:46:36.511Z,17.42
2022-11-02T22:49:05.016Z,17.56
2022-11-02T22:51:35.750Z,17.42
2022-11-02T22:54:08.493Z,17.44
2022-11-02T22:56:36.246Z,17.20
2022-11-02T22:59:04.311Z,17.15
2022-11-02T23:01:32.451Z,17.09
2022-11-02T23:03:59.870Z,17.05
2022-11-02T23:06:27.635Z,17.08
2022-11-02T23:08:57.826Z,16.97
2022-11-02T23:11:30.071Z,16.98
2022-11-02T23:14:08.441Z,16.83
2022-11-02T23:16:40.773Z,16.69
2022-11-02T23:19:31.617Z,16.61
2022-11-02T23:22:29.139Z,16.61
2022-11-02T23:25:11.542Z,16.67
2022-11-02T23:28:03.133Z,16.74
2022-11-02T23:30:51.619Z,16.77
2022-11-02T23:33:19.192Z,16.83
2022-11-02T23:36:04.492Z,16.78
2022-11-02T23:38:49.948Z,16.77
2022-11-02T23:41:19.153Z,16.82
2022-11-02T23:43:47.047Z,16.77
2022-11-02T23:46:14.787Z,16.85
2022-11-02T23:48:42.301Z,16.83
2022-11-02T23:51:30.397Z,17.08
2022-11-02T23:54:16.066Z,17.17
2022-11-02T23:56:43.499Z,16.96
2022-11-02T23:59:11.742Z,17.01
